Time,TemperatureF,DewpointF,PressureIn,WindDirection,WindDirectionDegrees,WindSpeedMPH,WindSpeedGustMPH,Humidity,HourlyPrecipIn,Conditions,Clouds,dailyrainin,SoftwareType,DateUTC
2013-03-31 00:04:00,41.7,37.6,30.29,SSE,159,0.0,0.0,85,0.00,,,0.00,meteohub,2013-03-31 07:04:00,
2013-03-31 00:09:00,41.5,37.6,30.29,SE,146,0.0,0.0,86,0.00,,,0.00,meteohub,2013-03-31 07:09:00,
2013-03-31 00:14:00,41.4,37.6,30.29,SSE,166,0.0,0.0,86,0.00,,,0.00,meteohub,2013-03-31 07:14:00,
2013-03-31 00:19:00,41.4,37.6,30.29,SSE,165,0.0,0.0,86,0.00,,,0.00,meteohub,2013-03-31 07:19:00,
2013-03-31 00:25:00,41.2,37.4,30.29,SSE,165,0.0,0.0,86,0.00,,,0.00,meteohub,2013-03-31 07:25:00,
2013-03-31 00:30:00,41.0,37.2,30.28,SSE,165,0.0,0.0,86,0.00,,,0.00,meteohub,2013-03-31 07:30:00,
2013-03-31 00:35:00,40.8,37.0,30.28,SSE,152,1.0,0.0,86,0.00,,,0.00,meteohub,2013-03-31 07:35:00,
2013-03-31 00:40:00,40.5,36.7,30.28,SSE,159,1.0,1.0,86,0.00,,,0.00,meteohub,2013-03-31 07:40:00,
2013-03-31 00:45:00,40.1,36.5,30.28,South,169,0.0,1.0,87,0.00,,,0.00,meteohub,2013-03-31 07:45:00,
2013-03-31 00:50:00,39.9,36.3,30.27,SSE,163,1.0,1.0,87,0.00,,,0.00,meteohub,2013-03-31 07:50:00,
2013-03-31 00:55:00,39.6,36.3,30.27,SSE,157,0.0,1.0,88,0.00,,,0.00,meteohub,2013-03-31 07:55:00,
2013-03-31 01:00:00,39.4,36.1,30.27,SSE,161,1.0,1.0,88,0.00,,,0.00,meteohub,2013-03-31 08:00:00,
2013-03-31 01:05:00,39.0,35.8,30.27,South,171,0.0,1.0,88,0.00,,,0.00,meteohub,2013-03-31 08:05:00,
2013-03-31 01:10:00,39.0,35.8,30.27,SSE,154,0.0,1.0,88,0.00,,,0.00,meteohub,2013-03-31 08:10:00,
2013-03-31 01:15:00,38.8,36.0,30.27,South,178,1.0,1.0,89,0.00,,,0.00,meteohub,2013-03-31 08:15:00,
2013-03-31 01:21:00,38.7,35.8,30.27,SSE,163,0.0,2.0,89,0.00,,,0.00,meteohub,2013-03-31 08:21:00,
2013-03-31 01:26:00,38.7,35.8,30.27,SSE,152,1.0,2.0,89,0.00,,,0.00,meteohub,2013-03-31 08:26:00,
2013-03-31 01:31:00,38.5,35.6,30.27,South,187,0.0,2.0,89,0.00,,,0.00,meteohub,2013-03-31 08:31:00,
2013-03-31 01:36:00,38.1,35.2,30.26,SSE,168,0.0,2.0,89,0.00,,,0.00,meteohub,2013-03-31 08:36:00,
2013-03-31 01:41:00,38.1,35.4,30.26,South,188,1.0,2.0,90,0.00,,,0.00,meteohub,2013-03-31 08:41:00,
2013-03-31 01:46:00,37.9,35.2,30.27,ESE,110,1.0,2.0,90,0.00,,,0.00,meteohub,2013-03-31 08:46:00,
2013-03-31 01:51:00,37.8,35.1,30.27,SSE,161,0.0,2.0,90,0.00,,,0.00,meteohub,2013-03-31 08:51:00,
2013-03-31 01:57:00,37.8,35.1,30.27,SSE,161,0.0,2.0,90,0.00,,,0.00,meteohub,2013-03-31 08:57:00,
2013-03-31 02:02:00,37.8,35.1,30.27,SSW,195,0.0,2.0,90,0.00,,,0.00,meteohub,2013-03-31 09:02:00,
2013-03-31 02:07:00,37.8,35.1,30.26,South,174,0.0,2.0,90,0.00,,,0.00,meteohub,2013-03-31 09:07:00,
2013-03-31 02:12:00,37.9,35.2,30.26,SSE,157,1.0,2.0,90,0.00,,,0.00,meteohub,2013-03-31 09:12:00,
2013-03-31 02:17:00,37.9,35.2,30.26,SSW,192,0.0,2.0,90,0.00,,,0.00,meteohub,2013-03-31 09:17:00,
2013-03-31 02:22:00,38.1,35.4,30.26,SSE,148,1.0,2.0,90,0.00,,,0.00,meteohub,2013-03-31 09:22:00,
2013-03-31 02:27:00,38.3,35.6,30.26,SSE,161,0.0,2.0,90,0.00,,,0.00,meteohub,2013-03-31 09:27:00,
2013-03-31 02:32:00,38.3,35.6,30.26,SSE,161,0.0,2.0,90,0.00,,,0.00,meteohub,2013-03-31 09:32:00,
2013-03-31 02:37:00,38.5,35.8,30.25,ESE,114,0.0,2.0,90,0.00,,,0.00,meteohub,2013-03-31 09:37:00,
2013-03-31 02:42:00,38.5,35.8,30.25,SSE,160,0.0,0.0,90,0.00,,,0.00,meteohub,2013-03-31 09:42:00,
2013-03-31 02:48:00,38.5,35.8,30.25,SSE,154,0.0,1.0,90,0.00,,,0.00,meteohub,2013-03-31 09:48:00,
2013-03-31 02:53:00,38.5,35.8,30.24,SE,124,0.0,1.0,90,0.00,,,0.00,meteohub,2013-03-31 09:53:00,
2013-03-31 02:58:00,38.5,35.8,30.24,SSE,149,1.0,1.0,90,0.00,,,0.00,meteohub,2013-03-31 09:58:00,
2013-03-31 03:03:00,38.7,35.8,30.24,SSE,168,0.0,3.0,89,0.00,,,0.00,meteohub,2013-03-31 10:03:00,
2013-03-31 03:08:00,38.8,36.0,30.24,SSE,167,0.0,3.0,89,0.00,,,0.00,meteohub,2013-03-31 10:08:00,
2013-03-31 03:13:00,39.0,35.8,30.25,SSW,206,1.0,3.0,88,0.00,,,0.00,meteohub,2013-03-31 10:13:00,
2013-03-31 03:18:00,39.4,36.5,30.25,SE,136,6.0,6.0,89,0.00,,,0.00,meteohub,2013-03-31 10:18:00,
2013-03-31 03:23:00,39.7,37.0,30.25,SSE,161,1.0,4.0,90,0.00,,,0.00,meteohub,2013-03-31 10:23:00,
2013-03-31 03:28:00,39.7,37.4,30.26,SSE,155,0.0,11.0,91,0.01,,,0.01,meteohub,2013-03-31 10:28:00,
2013-03-31 03:33:00,39.6,37.4,30.27,SSE,155,0.0,11.0,92,0.02,,,0.02,meteohub,2013-03-31 10:33:00,
2013-03-31 03:38:00,39.4,37.2,30.27,SW,215,1.0,11.0,92,0.03,,,0.03,meteohub,2013-03-31 10:38:00,
2013-03-31 03:44:00,39.0,36.9,30.27,WSW,242,1.0,3.0,92,0.03,,,0.03,meteohub,2013-03-31 10:44:00,
2013-03-31 03:49:00,38.8,36.7,30.27,ESE,109,0.0,5.0,92,0.03,,,0.03,meteohub,2013-03-31 10:49:00,
2013-03-31 03:54:00,38.7,36.5,30.26,SE,133,0.0,5.0,92,0.04,,,0.04,meteohub,2013-03-31 10:54:00,
2013-03-31 03:59:00,38.3,36.1,30.25,SE,135,0.0,5.0,92,0.04,,,0.04,meteohub,2013-03-31 10:59:00,
2013-03-31 04:04:00,37.9,35.8,30.25,SSE,168,0.0,2.0,92,0.04,,,0.04,meteohub,2013-03-31 11:04:00,
2013-03-31 04:09:00,37.9,35.8,30.25,SW,225,0.0,3.0,92,0.04,,,0.04,meteohub,2013-03-31 11:09:00,
2013-03-31 04:14:00,37.8,35.6,30.25,SW,225,0.0,3.0,92,0.04,,,0.04,meteohub,2013-03-31 11:14:00,
2013-03-31 04:19:00,37.8,36.0,30.25,SSE,162,0.0,3.0,93,0.04,,,0.04,meteohub,2013-03-31 11:19:00,
2013-03-31 04:24:00,37.8,36.0,30.25,SSE,154,0.0,4.0,93,0.04,,,0.04,meteohub,2013-03-31 11:24:00,
2013-03-31 04:29:00,37.6,35.4,30.25,SSE,167,1.0,4.0,92,0.03,,,0.04,meteohub,2013-03-31 11:29:00,
2013-03-31 04:35:00,37.6,35.4,30.25,SSW,206,0.0,4.0,92,0.01,,,0.04,meteohub,2013-03-31 11:35:00,
2013-03-31 04:39:00,37.4,35.2,30.25,ESE,114,0.0,3.0,92,0.01,,,0.04,meteohub,2013-03-31 11:39:00,
2013-03-31 04:45:00,37.2,35.1,30.25,SSE,148,0.0,3.0,92,0.01,,,0.04,meteohub,2013-03-31 11:45:00,
2013-03-31 04:50:00,37.2,35.4,30.25,SSE,164,0.0,3.0,93,0.01,,,0.04,meteohub,2013-03-31 11:50:00,
2013-03-31 04:54:00,37.4,35.6,30.26,SSE,163,0.0,1.0,93,0.00,,,0.04,meteohub,2013-03-31 11:54:00,
2013-03-31 05:00:00,37.4,35.6,30.26,SE,145,0.0,1.0,93,0.00,,,0.04,meteohub,2013-03-31 12:00:00,
2013-03-31 05:05:00,37.4,35.6,30.27,SSW,195,0.0,1.0,93,0.00,,,0.04,meteohub,2013-03-31 12:05:00,
2013-03-31 05:10:00,37.6,35.8,30.27,SSW,194,2.0,2.0,93,0.00,,,0.04,meteohub,2013-03-31 12:10:00,
2013-03-31 05:15:00,37.6,35.8,30.27,South,183,0.0,5.0,93,0.01,,,0.05,meteohub,2013-03-31 12:15:00,
2013-03-31 05:20:00,37.6,35.8,30.27,East,94,0.0,5.0,93,0.02,,,0.06,meteohub,2013-03-31 12:20:00,
2013-03-31 05:25:00,37.6,35.8,30.27,SSE,168,0.0,2.0,93,0.04,,,0.08,meteohub,2013-03-31 12:25:00,
2013-03-31 05:30:00,37.4,35.6,30.27,ESE,107,0.0,2.0,93,0.04,,,0.08,meteohub,2013-03-31 12:30:00,
2013-03-31 05:35:00,37.2,35.4,30.27,ESE,107,0.0,1.0,93,0.05,,,0.09,meteohub,2013-03-31 12:35:00,
2013-03-31 05:40:00,37.2,35.6,30.28,SSW,210,0.0,1.0,94,0.05,,,0.09,meteohub,2013-03-31 12:40:00,
2013-03-31 05:45:00,37.2,35.6,30.28,ESE,110,0.0,1.0,94,0.05,,,0.09,meteohub,2013-03-31 12:45:00,
2013-03-31 05:50:00,37.0,35.4,30.28,ESE,107,0.0,1.0,94,0.06,,,0.10,meteohub,2013-03-31 12:50:00,
2013-03-31 05:55:00,37.0,35.4,30.29,ESE,107,0.0,1.0,94,0.07,,,0.11,meteohub,2013-03-31 12:55:00,
2013-03-31 06:01:00,37.0,35.4,30.29,SE,130,0.0,1.0,94,0.07,,,0.11,meteohub,2013-03-31 13:01:00,
2013-03-31 06:06:00,37.0,35.8,30.28,ESE,123,0.0,1.0,95,0.08,,,0.12,meteohub,2013-03-31 13:06:00,
2013-03-31 06:11:00,36.9,35.6,30.28,South,185,0.0,1.0,95,0.07,,,0.12,meteohub,2013-03-31 13:11:00,
2013-03-31 06:16:00,36.9,35.2,30.28,SSE,166,0.0,1.0,94,0.06,,,0.12,meteohub,2013-03-31 13:16:00,
2013-03-31 06:21:00,36.7,35.1,30.28,SSE,162,0.0,1.0,94,0.05,,,0.12,meteohub,2013-03-31 13:21:00,
2013-03-31 06:26:00,36.5,35.2,30.29,SSE,156,0.0,1.0,95,0.04,,,0.12,meteohub,2013-03-31 13:26:00,
2013-03-31 06:32:00,36.3,35.1,30.28,ESE,121,0.0,1.0,95,0.04,,,0.12,meteohub,2013-03-31 13:32:00,
2013-03-31 06:37:00,36.3,35.1,30.29,South,185,0.0,1.0,95,0.03,,,0.12,meteohub,2013-03-31 13:37:00,
2013-03-31 06:42:00,36.3,35.1,30.29,South,185,0.0,1.0,95,0.03,,,0.12,meteohub,2013-03-31 13:42:00,
2013-03-31 06:47:00,36.3,35.1,30.29,SSE,155,0.0,1.0,95,0.02,,,0.12,meteohub,2013-03-31 13:47:00,
2013-03-31 06:52:00,36.1,34.9,30.30,SE,130,0.0,1.0,95,0.01,,,0.12,meteohub,2013-03-31 13:52:00,
2013-03-31 06:57:00,36.1,34.9,30.30,South,169,0.0,1.0,95,0.01,,,0.12,meteohub,2013-03-31 13:57:00,
2013-03-31 07:02:00,36.1,34.9,30.30,South,169,0.0,1.0,95,0.02,,,0.13,meteohub,2013-03-31 14:02:00,
2013-03-31 07:07:00,36.1,34.9,30.30,South,169,0.0,1.0,95,0.01,,,0.13,meteohub,2013-03-31 14:07:00,
2013-03-31 07:12:00,36.1,34.9,30.29,ESE,111,0.0,1.0,95,0.01,,,0.13,meteohub,2013-03-31 14:12:00,
2013-03-31 07:17:00,36.1,34.9,30.29,ESE,112,0.0,1.0,95,0.01,,,0.13,meteohub,2013-03-31 14:17:00,
2013-03-31 07:22:00,36.0,34.7,30.29,ESE,111,0.0,1.0,95,0.01,,,0.13,meteohub,2013-03-31 14:22:00,
2013-03-31 07:27:00,36.1,34.9,30.29,SE,144,0.0,1.0,95,0.01,,,0.13,meteohub,2013-03-31 14:27:00,
2013-03-31 07:32:00,36.1,34.9,30.28,SE,144,0.0,1.0,95,0.01,,,0.13,meteohub,2013-03-31 14:32:00,
2013-03-31 07:37:00,36.1,34.9,30.29,SSE,159,0.0,1.0,95,0.01,,,0.13,meteohub,2013-03-31 14:37:00,
2013-03-31 07:42:00,36.1,34.9,30.29,SSE,159,0.0,1.0,95,0.01,,,0.13,meteohub,2013-03-31 14:42:00,
2013-03-31 07:47:00,36.1,34.9,30.28,SSE,159,0.0,0.0,95,0.01,,,0.13,meteohub,2013-03-31 14:47:00,
2013-03-31 07:52:00,36.1,34.9,30.28,SSE,159,0.0,0.0,95,0.02,,,0.14,meteohub,2013-03-31 14:52:00,
2013-03-31 07:57:00,36.3,35.1,30.28,SSE,159,0.0,0.0,95,0.02,,,0.14,meteohub,2013-03-31 14:57:00,
2013-03-31 08:02:00,36.3,35.2,30.28,SSE,159,0.0,0.0,96,0.01,,,0.14,meteohub,2013-03-31 15:02:00,
2013-03-31 08:08:00,36.3,35.2,30.28,SSE,159,0.0,0.0,96,0.01,,,0.14,meteohub,2013-03-31 15:08:00,
2013-03-31 08:13:00,36.3,35.1,30.28,SSE,159,0.0,0.0,95,0.01,,,0.14,meteohub,2013-03-31 15:13:00,
2013-03-31 08:18:00,36.5,35.4,30.28,SSE,159,0.0,0.0,96,0.01,,,0.14,meteohub,2013-03-31 15:18:00,
2013-03-31 08:23:00,36.3,35.1,30.28,SSE,159,0.0,0.0,95,0.01,,,0.14,meteohub,2013-03-31 15:23:00,
2013-03-31 08:28:00,36.3,35.1,30.29,SSE,159,0.0,0.0,95,0.01,,,0.14,meteohub,2013-03-31 15:28:00,
2013-03-31 08:33:00,36.3,35.1,30.29,SSE,157,0.0,0.0,95,0.01,,,0.14,meteohub,2013-03-31 15:33:00,
2013-03-31 08:38:00,36.3,35.1,30.29,SSE,157,0.0,0.0,95,0.01,,,0.14,meteohub,2013-03-31 15:38:00,
2013-03-31 08:43:00,36.7,35.6,30.28,SSE,157,0.0,0.0,96,0.01,,,0.14,meteohub,2013-03-31 15:43:00,
2013-03-31 08:49:00,36.9,35.8,30.28,SSE,157,0.0,0.0,96,0.00,,,0.14,meteohub,2013-03-31 15:49:00,
2013-03-31 08:54:00,37.0,36.0,30.28,SSE,157,0.0,0.0,96,0.00,,,0.14,meteohub,2013-03-31 15:54:00,
2013-03-31 08:59:00,37.2,36.1,30.28,SSE,157,0.0,0.0,96,0.00,,,0.14,meteohub,2013-03-31 15:59:00,
2013-03-31 09:04:00,37.6,36.5,30.28,SSE,157,0.0,0.0,96,0.00,,,0.14,meteohub,2013-03-31 16:04:00,
2013-03-31 09:09:00,37.9,36.7,30.28,South,184,0.0,0.0,95,0.00,,,0.14,meteohub,2013-03-31 16:09:00,
2013-03-31 09:14:00,38.5,37.2,30.27,WSW,252,0.0,2.0,95,0.00,,,0.14,meteohub,2013-03-31 16:14:00,
2013-03-31 09:19:00,39.6,38.3,30.28,WSW,252,0.0,2.0,95,0.00,,,0.14,meteohub,2013-03-31 16:19:00,
2013-03-31 09:24:00,40.5,38.3,30.28,NE,38,0.0,2.0,92,0.00,,,0.14,meteohub,2013-03-31 16:24:00,
2013-03-31 09:29:00,41.2,38.1,30.28,East,90,0.0,1.0,89,0.00,,,0.14,meteohub,2013-03-31 16:29:00,
2013-03-31 09:34:00,40.8,36.7,30.28,NE,42,4.0,4.0,85,0.00,,,0.14,meteohub,2013-03-31 16:34:00,
2013-03-31 09:39:00,40.5,36.3,30.28,NNE,16,1.0,6.0,85,0.00,,,0.14,meteohub,2013-03-31 16:39:00,
2013-03-31 09:44:00,39.9,36.3,30.27,NNW,328,3.0,6.0,87,0.00,,,0.14,meteohub,2013-03-31 16:44:00,
2013-03-31 09:49:00,39.7,36.0,30.28,NNE,22,3.0,6.0,86,0.00,,,0.14,meteohub,2013-03-31 16:49:00,
2013-03-31 09:54:00,39.6,35.8,30.28,NNE,15,3.0,5.0,86,0.00,,,0.14,meteohub,2013-03-31 16:54:00,
2013-03-31 09:59:00,39.6,35.8,30.28,NE,35,1.0,5.0,86,0.00,,,0.14,meteohub,2013-03-31 16:59:00,
2013-03-31 10:04:00,39.6,35.4,30.28,ENE,71,0.0,5.0,85,0.00,,,0.14,meteohub,2013-03-31 17:04:00,
2013-03-31 10:10:00,39.9,35.8,30.28,NNW,344,5.0,5.0,85,0.00,,,0.14,meteohub,2013-03-31 17:10:00,
2013-03-31 10:15:00,39.7,35.6,30.29,NW,325,1.0,5.0,85,0.00,,,0.14,meteohub,2013-03-31 17:15:00,
2013-03-31 10:20:00,39.6,35.4,30.28,NW,323,4.0,5.0,85,0.00,,,0.14,meteohub,2013-03-31 17:20:00,
2013-03-31 10:25:00,39.6,35.1,30.28,NNE,22,1.0,5.0,84,0.00,,,0.14,meteohub,2013-03-31 17:25:00,
2013-03-31 10:30:00,39.7,35.2,30.28,NW,320,1.0,4.0,84,0.00,,,0.14,meteohub,2013-03-31 17:30:00,
2013-03-31 10:35:00,40.1,35.1,30.28,WNW,284,0.0,4.0,82,0.00,,,0.14,meteohub,2013-03-31 17:35:00,
2013-03-31 10:40:00,40.8,34.2,30.28,WSW,257,0.0,6.0,77,0.00,,,0.14,meteohub,2013-03-31 17:40:00,
2013-03-31 10:45:00,41.4,35.1,30.28,West,272,0.0,6.0,78,0.00,,,0.14,meteohub,2013-03-31 17:45:00,
2013-03-31 10:50:00,41.9,35.2,30.28,East,98,0.0,6.0,77,0.00,,,0.14,meteohub,2013-03-31 17:50:00,
2013-03-31 10:55:00,42.3,35.2,30.28,ESE,111,1.0,5.0,76,0.00,,,0.14,meteohub,2013-03-31 17:55:00,
2013-03-31 11:00:00,42.3,34.5,30.28,West,271,0.0,3.0,74,0.00,,,0.14,meteohub,2013-03-31 18:00:00,
2013-03-31 11:06:00,42.4,34.7,30.28,SE,134,1.0,3.0,74,0.00,,,0.14,meteohub,2013-03-31 18:06:00,
2013-03-31 11:11:00,42.6,34.2,30.28,SSW,205,0.0,3.0,72,0.00,,,0.14,meteohub,2013-03-31 18:11:00,
2013-03-31 11:16:00,43.2,34.7,30.28,SSE,162,9.0,9.0,72,0.00,,,0.14,meteohub,2013-03-31 18:16:00,
2013-03-31 11:21:00,43.5,34.3,30.27,SE,128,1.0,9.0,70,0.00,,,0.14,meteohub,2013-03-31 18:21:00,
2013-03-31 11:27:00,44.2,34.7,30.27,ESE,116,8.0,9.0,69,0.00,,,0.14,meteohub,2013-03-31 18:27:00,
2013-03-31 11:32:00,44.1,32.7,30.27,SE,146,3.0,15.0,64,0.00,,,0.14,meteohub,2013-03-31 18:32:00,
2013-03-31 11:37:00,44.2,34.3,30.28,SSW,199,0.0,15.0,68,0.00,,,0.14,meteohub,2013-03-31 18:37:00,
2013-03-31 11:42:00,44.2,34.7,30.27,SW,217,0.0,15.0,69,0.00,,,0.14,meteohub,2013-03-31 18:42:00,
2013-03-31 11:47:00,44.8,34.2,30.27,NW,310,2.0,10.0,66,0.00,,,0.14,meteohub,2013-03-31 18:47:00,
2013-03-31 11:52:00,45.0,34.3,30.28,SSE,148,2.0,5.0,66,0.00,,,0.14,meteohub,2013-03-31 18:52:00,
2013-03-31 11:57:00,45.0,33.1,30.27,SW,217,0.0,8.0,63,0.00,,,0.14,meteohub,2013-03-31 18:57:00,
2013-03-31 12:02:00,45.0,33.1,30.28,SSE,164,1.0,8.0,63,0.00,,,0.14,meteohub,2013-03-31 19:02:00,
2013-03-31 12:07:00,45.1,32.5,30.28,SSE,168,3.0,8.0,61,0.00,,,0.14,meteohub,2013-03-31 19:07:00,
2013-03-31 12:12:00,45.1,32.0,30.28,NE,56,1.0,6.0,60,0.00,,,0.14,meteohub,2013-03-31 19:12:00,
2013-03-31 12:17:00,45.3,33.1,30.28,NW,311,3.0,6.0,62,0.00,,,0.14,meteohub,2013-03-31 19:17:00,
2013-03-31 12:22:00,45.9,32.4,30.28,SW,227,0.0,8.0,59,0.00,,,0.14,meteohub,2013-03-31 19:22:00,
2013-03-31 12:28:00,46.0,31.6,30.27,SW,222,0.0,8.0,57,0.00,,,0.14,meteohub,2013-03-31 19:28:00,
2013-03-31 12:33:00,46.6,30.7,30.28,NE,44,3.0,6.0,54,0.00,,,0.14,meteohub,2013-03-31 19:33:00,
2013-03-31 12:38:00,46.8,30.9,30.27,SE,140,2.0,6.0,54,0.00,,,0.14,meteohub,2013-03-31 19:38:00,
2013-03-31 12:43:00,46.9,31.1,30.27,ESE,112,2.0,5.0,54,0.00,,,0.14,meteohub,2013-03-31 19:43:00,
2013-03-31 12:48:00,47.1,31.8,30.27,ENE,70,0.0,5.0,55,0.00,,,0.14,meteohub,2013-03-31 19:48:00,
2013-03-31 12:53:00,47.5,31.6,30.27,SSE,158,2.0,6.0,54,0.00,,,0.14,meteohub,2013-03-31 19:53:00,
2013-03-31 12:58:00,47.5,31.3,30.27,East,97,1.0,8.0,53,0.00,,,0.14,meteohub,2013-03-31 19:58:00,
2013-03-31 13:03:00,48.0,32.5,30.28,SW,215,0.0,8.0,55,0.00,,,0.14,meteohub,2013-03-31 20:03:00,
2013-03-31 13:08:00,48.0,31.6,30.28,SE,144,2.0,8.0,53,0.00,,,0.14,meteohub,2013-03-31 20:08:00,
2013-03-31 13:13:00,48.0,31.3,30.27,North,351,4.0,8.0,52,0.00,,,0.14,meteohub,2013-03-31 20:13:00,
2013-03-31 13:18:00,47.8,30.6,30.27,South,170,4.0,8.0,51,0.00,,,0.14,meteohub,2013-03-31 20:18:00,
2013-03-31 13:23:00,47.5,30.2,30.28,SW,236,3.0,7.0,51,0.00,,,0.14,meteohub,2013-03-31 20:23:00,
2013-03-31 13:28:00,47.5,30.2,30.28,West,261,1.0,7.0,51,0.00,,,0.14,meteohub,2013-03-31 20:28:00,
2013-03-31 13:34:00,47.5,30.2,30.28,SSW,207,1.0,8.0,51,0.00,,,0.14,meteohub,2013-03-31 20:34:00,
2013-03-31 13:39:00,46.9,30.7,30.28,WSW,252,1.0,8.0,53,0.00,,,0.14,meteohub,2013-03-31 20:39:00,
2013-03-31 13:44:00,46.8,30.6,30.28,SSE,157,1.0,9.0,53,0.00,,,0.14,meteohub,2013-03-31 20:44:00,
2013-03-31 13:49:00,45.7,28.6,30.28,WNW,286,2.0,9.0,51,0.00,,,0.14,meteohub,2013-03-31 20:49:00,
2013-03-31 13:54:00,45.7,30.0,30.27,SSW,200,0.0,8.0,54,0.00,,,0.14,meteohub,2013-03-31 20:54:00,
2013-03-31 13:59:00,47.1,30.9,30.27,South,178,2.0,8.0,53,0.00,,,0.14,meteohub,2013-03-31 20:59:00,
2013-03-31 14:04:00,48.0,30.2,30.27,ESE,102,4.0,8.0,50,0.00,,,0.14,meteohub,2013-03-31 21:04:00,
2013-03-31 14:09:00,47.7,29.5,30.27,NE,46,4.0,7.0,49,0.00,,,0.14,meteohub,2013-03-31 21:09:00,
2013-03-31 14:14:00,47.7,30.9,30.27,SSE,161,0.0,5.0,52,0.00,,,0.14,meteohub,2013-03-31 21:14:00,
2013-03-31 14:19:00,48.0,30.7,30.27,SW,221,3.0,10.0,51,0.00,,,0.14,meteohub,2013-03-31 21:19:00,
2013-03-31 14:24:00,48.2,31.5,30.27,SW,218,6.0,10.0,52,0.00,,,0.14,meteohub,2013-03-31 21:24:00,
2013-03-31 14:29:00,48.7,30.9,30.27,SE,133,1.0,10.0,50,0.00,,,0.14,meteohub,2013-03-31 21:29:00,
2013-03-31 14:35:00,48.7,30.4,30.26,West,261,0.0,6.0,49,0.00,,,0.14,meteohub,2013-03-31 21:35:00,
2013-03-31 14:40:00,48.9,32.0,30.26,South,184,3.0,6.0,52,0.00,,,0.14,meteohub,2013-03-31 21:40:00,
2013-03-31 14:45:00,48.4,31.6,30.27,South,184,3.0,11.0,52,0.00,,,0.14,meteohub,2013-03-31 21:45:00,
2013-03-31 14:50:00,47.5,32.2,30.27,South,173,4.0,11.0,55,0.00,,,0.14,meteohub,2013-03-31 21:50:00,
2013-03-31 14:55:00,46.8,32.7,30.27,SSW,209,2.0,11.0,58,0.00,,,0.14,meteohub,2013-03-31 21:55:00,
2013-03-31 15:00:00,46.8,32.4,30.27,SE,132,0.0,10.0,57,0.00,,,0.14,meteohub,2013-03-31 22:00:00,
2013-03-31 15:05:00,46.9,32.5,30.27,South,175,2.0,9.0,57,0.00,,,0.14,meteohub,2013-03-31 22:05:00,
2013-03-31 15:10:00,47.8,33.3,30.27,SW,214,4.0,9.0,57,0.00,,,0.14,meteohub,2013-03-31 22:10:00,
2013-03-31 15:15:00,48.2,34.2,30.27,SSW,202,2.0,8.0,58,0.00,,,0.14,meteohub,2013-03-31 22:15:00,
2013-03-31 15:20:00,48.4,32.9,30.27,SE,128,0.0,4.0,55,0.00,,,0.14,meteohub,2013-03-31 22:20:00,
2013-03-31 15:25:00,48.6,32.2,30.27,WSW,237,1.0,4.0,53,0.00,,,0.14,meteohub,2013-03-31 22:25:00,
2013-03-31 15:30:00,48.7,32.9,30.27,SSE,155,4.0,5.0,54,0.00,,,0.14,meteohub,2013-03-31 22:30:00,
2013-03-31 15:35:00,46.8,34.5,30.27,SE,136,3.0,8.0,62,0.00,,,0.14,meteohub,2013-03-31 22:35:00,
2013-03-31 15:40:00,45.3,35.8,30.27,SE,141,3.0,8.0,69,0.00,,,0.14,meteohub,2013-03-31 22:40:00,
2013-03-31 15:45:00,44.4,36.0,30.27,SSE,155,0.0,9.0,72,0.00,,,0.14,meteohub,2013-03-31 22:45:00,
2013-03-31 15:51:00,44.1,35.2,30.27,ESE,103,2.0,9.0,71,0.00,,,0.14,meteohub,2013-03-31 22:51:00,
2013-03-31 15:56:00,44.2,35.1,30.27,ESE,104,1.0,7.0,70,0.00,,,0.14,meteohub,2013-03-31 22:56:00,
2013-03-31 16:01:00,44.2,35.1,30.27,East,89,1.0,7.0,70,0.00,,,0.14,meteohub,2013-03-31 23:01:00,
2013-03-31 16:06:00,44.4,34.9,30.27,ESE,104,0.0,6.0,69,0.00,,,0.14,meteohub,2013-03-31 23:06:00,
2013-03-31 16:11:00,44.1,34.2,30.27,NNE,19,1.0,6.0,68,0.00,,,0.14,meteohub,2013-03-31 23:11:00,
2013-03-31 16:16:00,44.1,33.4,30.26,East,84,1.0,4.0,66,0.00,,,0.14,meteohub,2013-03-31 23:16:00,
2013-03-31 16:21:00,44.4,33.8,30.27,NNE,27,0.0,6.0,66,0.00,,,0.14,meteohub,2013-03-31 23:21:00,
2013-03-31 16:26:00,44.8,32.9,30.26,SSE,150,3.0,6.0,63,0.00,,,0.14,meteohub,2013-03-31 23:26:00,
2013-03-31 16:31:00,45.0,32.4,30.26,NNW,344,2.0,6.0,61,0.00,,,0.14,meteohub,2013-03-31 23:31:00,
2013-03-31 16:36:00,45.0,31.5,30.26,SW,233,1.0,6.0,59,0.00,,,0.14,meteohub,2013-03-31 23:36:00,
2013-03-31 16:42:00,45.0,32.0,30.26,WSW,238,1.0,6.0,60,0.00,,,0.14,meteohub,2013-03-31 23:42:00,
2013-03-31 16:47:00,45.0,31.1,30.26,SW,233,1.0,5.0,58,0.00,,,0.14,meteohub,2013-03-31 23:47:00,
2013-03-31 16:52:00,45.0,30.6,30.26,SSE,168,0.0,4.0,57,0.00,,,0.14,meteohub,2013-03-31 23:52:00,
2013-03-31 16:57:00,45.0,32.0,30.26,ESE,119,0.0,2.0,60,0.00,,,0.14,meteohub,2013-03-31 23:57:00,
2013-03-31 17:02:00,45.1,30.7,30.26,SW,219,0.0,3.0,57,0.00,,,0.14,meteohub,2013-04-01 00:02:00,
2013-03-31 17:07:00,45.3,30.9,30.26,SSE,163,1.0,5.0,57,0.00,,,0.00,meteohub,2013-04-01 00:07:00,
2013-03-31 17:12:00,45.1,30.7,30.26,SW,214,2.0,5.0,57,0.00,,,0.00,meteohub,2013-04-01 00:12:00,
2013-03-31 17:17:00,45.3,30.6,30.26,SE,128,2.0,5.0,56,0.00,,,0.00,meteohub,2013-04-01 00:17:00,
2013-03-31 17:22:00,45.1,30.7,30.26,SSW,213,0.0,4.0,57,0.00,,,0.00,meteohub,2013-04-01 00:22:00,
2013-03-31 17:27:00,45.0,31.5,30.27,ESE,121,1.0,4.0,59,0.00,,,0.00,meteohub,2013-04-01 00:27:00,
2013-03-31 17:32:00,44.4,32.5,30.27,SSW,195,0.0,4.0,63,0.00,,,0.00,meteohub,2013-04-01 00:32:00,
2013-03-31 17:37:00,43.2,32.2,30.27,ESE,121,2.0,8.0,65,0.00,,,0.00,meteohub,2013-04-01 00:37:00,
2013-03-31 17:42:00,42.3,32.2,30.28,East,100,2.0,8.0,67,0.00,,,0.00,meteohub,2013-04-01 00:42:00,
2013-03-31 17:47:00,41.2,34.2,30.28,ESE,120,2.0,13.0,76,0.00,,,0.00,meteohub,2013-04-01 00:47:00,
2013-03-31 17:53:00,40.6,34.7,30.28,East,100,0.0,13.0,79,0.00,,,0.00,meteohub,2013-04-01 00:53:00,
2013-03-31 17:58:00,40.1,34.5,30.28,SSW,196,0.0,13.0,80,0.00,,,0.00,meteohub,2013-04-01 00:58:00,
2013-03-31 18:03:00,39.7,34.7,30.28,SSE,155,0.0,3.0,82,0.00,,,0.00,meteohub,2013-04-01 01:03:00,
2013-03-31 18:08:00,39.7,35.2,30.28,ESE,107,0.0,3.0,84,0.00,,,0.00,meteohub,2013-04-01 01:08:00,
2013-03-31 18:13:00,39.6,35.1,30.28,East,101,0.0,3.0,84,0.00,,,0.00,meteohub,2013-04-01 01:13:00,
2013-03-31 18:18:00,39.6,34.9,30.28,ESE,108,0.0,1.0,83,0.00,,,0.00,meteohub,2013-04-01 01:18:00,
2013-03-31 18:23:00,39.0,34.0,30.28,ESE,110,0.0,2.0,82,0.00,,,0.00,meteohub,2013-04-01 01:23:00,
2013-03-31 18:28:00,39.0,34.3,30.28,ESE,113,0.0,2.0,83,0.00,,,0.00,meteohub,2013-04-01 01:28:00,
2013-03-31 18:33:00,38.8,33.4,30.28,ESE,105,0.0,2.0,81,0.00,,,0.00,meteohub,2013-04-01 01:33:00,
2013-03-31 18:38:00,38.8,34.2,30.28,ESE,123,0.0,1.0,83,0.00,,,0.00,meteohub,2013-04-01 01:38:00,
2013-03-31 18:43:00,38.8,33.8,30.28,South,173,0.0,1.0,82,0.00,,,0.00,meteohub,2013-04-01 01:43:00,
2013-03-31 18:48:00,38.8,33.8,30.28,SW,214,0.0,1.0,82,0.00,,,0.00,meteohub,2013-04-01 01:48:00,
2013-03-31 18:54:00,39.0,34.3,30.28,South,182,0.0,2.0,83,0.00,,,0.00,meteohub,2013-04-01 01:54:00,
2013-03-31 18:59:00,39.0,33.6,30.28,South,178,1.0,4.0,81,0.00,,,0.00,meteohub,2013-04-01 01:59:00,
2013-03-31 19:04:00,39.0,33.6,30.28,ESE,108,0.0,4.0,81,0.00,,,0.00,meteohub,2013-04-01 02:04:00,
2013-03-31 19:09:00,38.8,33.4,30.28,ESE,111,0.0,4.0,81,0.00,,,0.00,meteohub,2013-04-01 02:09:00,
2013-03-31 19:14:00,38.7,33.1,30.28,SSW,205,0.0,3.0,80,0.00,,,0.00,meteohub,2013-04-01 02:14:00,
2013-03-31 19:19:00,38.5,33.1,30.28,SE,138,1.0,3.0,81,0.00,,,0.00,meteohub,2013-04-01 02:19:00,
2013-03-31 19:24:00,38.5,32.9,30.28,ESE,105,1.0,3.0,80,0.00,,,0.00,meteohub,2013-04-01 02:24:00,
2013-03-31 19:29:00,38.1,32.5,30.28,SSE,155,0.0,3.0,80,0.00,,,0.00,meteohub,2013-04-01 02:29:00,
2013-03-31 19:34:00,38.1,32.5,30.28,SSE,153,0.0,4.0,80,0.00,,,0.00,meteohub,2013-04-01 02:34:00,
2013-03-31 19:39:00,38.1,32.7,30.28,ESE,113,0.0,4.0,81,0.00,,,0.00,meteohub,2013-04-01 02:39:00,
2013-03-31 19:44:00,37.9,32.7,30.28,SSE,157,0.0,4.0,81,0.00,,,0.00,meteohub,2013-04-01 02:44:00,
2013-03-31 19:49:00,37.8,32.7,30.28,SSE,157,0.0,2.0,82,0.00,,,0.00,meteohub,2013-04-01 02:49:00,
2013-03-31 19:54:00,37.6,32.5,30.28,SSE,157,0.0,1.0,82,0.00,,,0.00,meteohub,2013-04-01 02:54:00,
2013-03-31 20:00:00,37.4,32.7,30.28,SE,144,0.0,1.0,83,0.00,,,0.00,meteohub,2013-04-01 03:00:00,
2013-03-31 20:05:00,37.2,32.5,30.28,SE,144,0.0,0.0,83,0.00,,,0.00,meteohub,2013-04-01 03:05:00,
2013-03-31 20:10:00,36.9,32.5,30.28,SSE,150,0.0,1.0,84,0.00,,,0.00,meteohub,2013-04-01 03:10:00,
2013-03-31 20:15:00,36.7,32.4,30.28,SSE,154,0.0,1.0,84,0.00,,,0.00,meteohub,2013-04-01 03:15:00,
2013-03-31 20:20:00,36.1,32.0,30.28,SSE,148,0.0,1.0,85,0.00,,,0.00,meteohub,2013-04-01 03:20:00,
2013-03-31 20:25:00,36.0,31.8,30.28,SSE,148,0.0,1.0,85,0.00,,,0.00,meteohub,2013-04-01 03:25:00,
2013-03-31 20:30:00,35.6,31.8,30.28,SSE,148,0.0,1.0,86,0.00,,,0.00,meteohub,2013-04-01 03:30:00,
2013-03-31 20:35:00,35.4,31.6,30.28,SSE,148,0.0,0.0,86,0.00,,,0.00,meteohub,2013-04-01 03:35:00,
2013-03-31 20:40:00,35.2,31.5,30.29,SSE,148,0.0,0.0,86,0.00,,,0.00,meteohub,2013-04-01 03:40:00,
2013-03-31 20:45:00,34.9,31.1,30.29,SSE,148,0.0,0.0,86,0.00,,,0.00,meteohub,2013-04-01 03:45:00,
2013-03-31 20:50:00,34.7,31.3,30.29,SE,133,0.0,0.0,87,0.00,,,0.00,meteohub,2013-04-01 03:50:00,
2013-03-31 20:55:00,34.5,31.1,30.29,SE,134,0.0,0.0,87,0.00,,,0.00,meteohub,2013-04-01 03:55:00,
2013-03-31 21:00:00,34.3,31.1,30.29,SE,138,0.0,0.0,88,0.00,,,0.00,meteohub,2013-04-01 04:00:00,
2013-03-31 21:01:00,34.3,31.1,30.29,SE,137,0.0,0.0,88,0.00,,,0.00,meteohub,2013-04-01 04:01:00,
2013-03-31 21:06:00,34.0,30.7,30.29,SE,137,0.0,0.0,88,0.00,,,0.00,meteohub,2013-04-01 04:06:00,
2013-03-31 21:11:00,33.8,30.6,30.30,SE,137,0.0,0.0,88,0.00,,,0.00,meteohub,2013-04-01 04:11:00,
2013-03-31 21:12:00,33.8,30.6,30.30,SE,136,0.0,0.0,88,0.00,,,0.00,meteohub,2013-04-01 04:12:00,
2013-03-31 21:17:00,33.6,30.7,30.30,SE,136,0.0,0.0,89,0.00,,,0.00,meteohub,2013-04-01 04:17:00,
2013-03-31 21:22:00,33.4,30.6,30.30,SE,137,0.0,0.0,89,0.00,,,0.00,meteohub,2013-04-01 04:22:00,
2013-03-31 21:27:00,33.4,30.6,30.31,SE,137,0.0,0.0,89,0.00,,,0.00,meteohub,2013-04-01 04:27:00,
2013-03-31 21:32:00,33.3,30.6,30.31,South,176,0.0,1.0,90,0.00,,,0.00,meteohub,2013-04-01 04:32:00,
2013-03-31 21:37:00,33.3,30.6,30.30,South,176,0.0,1.0,90,0.00,,,0.00,meteohub,2013-04-01 04:37:00,
2013-03-31 21:42:00,33.3,30.6,30.30,South,182,0.0,1.0,90,0.00,,,0.00,meteohub,2013-04-01 04:42:00,
2013-03-31 21:48:00,33.3,30.6,30.31,South,182,0.0,0.0,90,0.00,,,0.00,meteohub,2013-04-01 04:48:00,
2013-03-31 21:53:00,33.1,30.2,30.31,South,176,0.0,0.0,89,0.00,,,0.00,meteohub,2013-04-01 04:53:00,
2013-03-31 21:58:00,33.1,30.4,30.31,ESE,107,0.0,0.0,90,0.00,,,0.00,meteohub,2013-04-01 04:58:00,
2013-03-31 22:03:00,32.9,30.0,30.32,SE,146,0.0,1.0,89,0.00,,,0.00,meteohub,2013-04-01 05:03:00,
2013-03-31 22:08:00,32.7,30.2,30.31,SSE,155,0.0,1.0,90,0.00,,,0.00,meteohub,2013-04-01 05:08:00,
2013-03-31 22:13:00,32.5,30.0,30.31,SSE,161,0.0,1.0,90,0.00,,,0.00,meteohub,2013-04-01 05:13:00,
2013-03-31 22:18:00,32.4,29.8,30.32,SSE,161,0.0,1.0,90,0.00,,,0.00,meteohub,2013-04-01 05:18:00,
2013-03-31 22:24:00,32.4,29.8,30.31,SE,130,0.0,0.0,90,0.00,,,0.00,meteohub,2013-04-01 05:24:00,
2013-03-31 22:29:00,32.4,29.8,30.31,South,171,0.0,0.0,90,0.00,,,0.00,meteohub,2013-04-01 05:29:00,
2013-03-31 22:34:00,32.4,29.8,30.31,SW,223,0.0,1.0,90,0.00,,,0.00,meteohub,2013-04-01 05:34:00,
2013-03-31 22:39:00,32.4,29.8,30.31,SSW,213,0.0,1.0,90,0.00,,,0.00,meteohub,2013-04-01 05:39:00,
2013-03-31 22:44:00,32.4,29.5,30.31,SW,223,0.0,1.0,89,0.00,,,0.00,meteohub,2013-04-01 05:44:00,
2013-03-31 22:49:00,32.4,29.5,30.31,SW,223,0.0,1.0,89,0.00,,,0.00,meteohub,2013-04-01 05:49:00,
2013-03-31 22:54:00,32.4,29.5,30.31,South,176,0.0,1.0,89,0.00,,,0.00,meteohub,2013-04-01 05:54:00,
2013-03-31 22:59:00,32.4,29.5,30.31,South,172,0.0,1.0,89,0.00,,,0.00,meteohub,2013-04-01 05:59:00,
2013-03-31 23:04:00,32.4,29.5,30.31,South,172,0.0,1.0,89,0.00,,,0.00,meteohub,2013-04-01 06:04:00,
2013-03-31 23:09:00,32.4,29.1,30.31,ESE,123,0.0,1.0,88,0.00,,,0.00,meteohub,2013-04-01 06:09:00,
2013-03-31 23:14:00,32.4,29.5,30.31,SW,215,1.0,1.0,89,0.00,,,0.00,meteohub,2013-04-01 06:14:00,
2013-03-31 23:19:00,32.5,29.7,30.31,East,81,0.0,1.0,89,0.00,,,0.00,meteohub,2013-04-01 06:19:00,
2013-03-31 23:24:00,32.7,29.8,30.31,East,96,0.0,1.0,89,0.00,,,0.00,meteohub,2013-04-01 06:24:00,
2013-03-31 23:30:00,32.7,29.8,30.31,SSE,164,0.0,1.0,89,0.00,,,0.00,meteohub,2013-04-01 06:30:00,
2013-03-31 23:35:00,32.7,29.5,30.31,SSE,161,0.0,1.0,88,0.00,,,0.00,meteohub,2013-04-01 06:35:00,
2013-03-31 23:36:00,32.7,29.5,30.31,SSE,161,0.0,1.0,88,0.00,,,0.00,meteohub,2013-04-01 06:36:00,
2013-03-31 23:42:00,32.7,29.8,30.31,SSE,152,0.0,1.0,89,0.00,,,0.00,meteohub,2013-04-01 06:42:00,
2013-03-31 23:47:00,32.9,30.0,30.31,SSE,159,0.0,1.0,89,0.00,,,0.00,meteohub,2013-04-01 06:47:00,
2013-03-31 23:52:00,33.1,30.2,30.31,SSE,159,0.0,0.0,89,0.00,,,0.00,meteohub,2013-04-01 06:52:00,
2013-03-31 23:57:00,33.1,30.2,30.31,SSE,159,0.0,0.0,89,0.00,,,0.00,meteohub,2013-04-01 06:57:00,